GMTA/AHU METAR and TAF weather

Enter ICAO airport designator
Station Type Date Time Source
GMTA METAR 2021/09/25 12:00 UTC NOAA

GMTA 251200Z 36005KT 290V070 9999 FEW026 SCT040 BKN090 23/19 Q1018 NOSIG


Station Type Date Time Source
GMTA Decoded METAR 2021/09/25 12:00 UTC NOAA

Al Hoceima, Morocco (GMTA) 35-11N 003-51W 14M
Sep 25, 2021 - 08:00 AM EDT / 2021.09.25 1200 UTC
Wind: from the N (360 degrees) at 6 MPH (5 KT) (direction variable):0
Visibility: greater than 7 mile(s):0
Sky conditions: mostly cloudy
Temperature: 73 F (23 C)
Dew Point: 66 F (19 C)
Relative Humidity: 78%
Pressure (altimeter): 30.06 in. Hg (1018 hPa)
ob: GMTA 251200Z 36005KT 290V070 9999 FEW026 SCT040 BKN090 23/19 Q1018 NOSIG
cycle: 12

Station Type Date Time Source
GMTA TAF 2021/09/25 12:21 UTC NOAA

TAF TAF GMTA 251100Z 2512/2618 02007KT 9999 FEW026 SCT040 BKN090

Example: see airport list